Time;durP1;ratioP1;P1;durP2;ratioP2;P2;SDS_P1;SDS_P2;PMS_P1;PMS_P2;Temp;Humidity;BMP_temperature;BMP_pressure;BME280_temperature;BME280_humidity;BME280_pressure;Samples;Min_cycle;Max_cycle;Signal;HPM_P1;HPM_P2
2021/05/16 00:00:24;;;;;;;8.37;7.70;;;11.80;99.90;;;;;;4993082;28;20706;-68
2021/05/16 00:02:51;;;;;;;8.07;7.37;;;11.80;99.90;;;;;;4987028;28;20628;-69
2021/05/16 00:05:19;;;;;;;7.80;7.20;;;11.70;99.90;;;;;;4991932;28;21321;-68
2021/05/16 00:07:44;;;;;;;7.90;7.20;;;11.70;99.90;;;;;;4987737;28;21998;-71
2021/05/16 00:10:11;;;;;;;8.37;7.67;;;11.60;99.90;;;;;;4989767;28;22406;-68
2021/05/16 00:12:37;;;;;;;8.57;7.80;;;11.60;99.90;;;;;;4988923;28;20189;-70
2021/05/16 00:15:07;;;;;;;8.57;7.77;;;11.50;99.90;;;;;;4976887;28;20641;-71
2021/05/16 00:17:32;;;;;;;9.17;8.30;;;11.50;99.90;;;;;;4986871;28;22302;-69
2021/05/16 00:20:01;;;;;;;8.43;7.63;;;11.50;99.90;;;;;;4990942;28;20624;-70
2021/05/16 00:22:27;;;;;;;8.60;7.90;;;11.50;99.90;;;;;;4987383;28;20196;-68
2021/05/16 00:24:52;;;;;;;8.20;7.60;;;11.40;99.90;;;;;;4990926;28;21226;-67
2021/05/16 00:27:18;;;;;;;7.93;7.27;;;11.40;99.90;;;;;;4992971;28;20273;-68
2021/05/16 00:29:43;;;;;;;8.10;7.40;;;11.40;99.90;;;;;;4969045;28;20202;-68
2021/05/16 00:32:09;;;;;;;9.37;8.60;;;11.40;99.90;;;;;;4973423;28;20604;-72
2021/05/16 00:34:34;;;;;;;8.50;7.80;;;11.30;99.90;;;;;;4994065;28;20221;-71
2021/05/16 00:37:00;;;;;;;7.83;7.20;;;11.30;99.90;;;;;;4974012;28;20189;-71
2021/05/16 00:39:26;;;;;;;7.93;7.23;;;11.30;99.90;;;;;;4969870;28;20673;-70
2021/05/16 00:41:52;;;;;;;8.17;7.53;;;11.30;99.90;;;;;;4997490;28;20668;-68
2021/05/16 00:44:19;;;;;;;8.27;7.57;;;11.30;99.90;;;;;;4978483;28;20707;-70
2021/05/16 00:46:45;;;;;;;7.33;6.63;;;11.30;99.90;;;;;;4990450;28;20619;-70
2021/05/16 00:49:11;;;;;;;7.93;7.33;;;11.30;99.90;;;;;;4985171;28;20644;-70
2021/05/16 00:51:37;;;;;;;8.97;8.17;;;11.30;99.90;;;;;;4967788;28;20207;-70
2021/05/16 00:54:07;;;;;;;8.47;7.77;;;11.30;99.90;;;;;;4992317;28;21125;-70
2021/05/16 00:56:33;;;;;;;8.40;7.70;;;11.30;99.90;;;;;;4983420;28;20620;-70
2021/05/16 00:58:59;;;;;;;8.10;7.50;;;11.30;99.90;;;;;;4985584;28;20640;-70
2021/05/16 01:01:26;;;;;;;7.77;7.17;;;11.30;99.90;;;;;;4990138;28;20177;-70
2021/05/16 01:03:53;;;;;;;8.37;7.67;;;11.30;99.90;;;;;;4988389;28;20635;-71
2021/05/16 01:06:19;;;;;;;8.40;7.70;;;11.30;99.90;;;;;;4983672;28;20648;-69
2021/05/16 01:08:46;;;;;;;8.40;7.60;;;11.20;99.90;;;;;;4990187;28;21226;-70
2021/05/16 01:11:13;;;;;;;8.40;7.70;;;11.20;99.90;;;;;;4987910;28;20220;-70
2021/05/16 01:13:42;;;;;;;8.27;7.47;;;11.20;99.90;;;;;;4970826;28;21024;-68
2021/05/16 01:16:08;;;;;;;8.70;8.00;;;11.20;99.90;;;;;;4986862;28;20618;-71
2021/05/16 01:18:33;;;;;;;8.23;7.53;;;11.20;99.90;;;;;;4989017;28;20722;-70
2021/05/16 01:20:59;;;;;;;7.80;7.10;;;11.20;99.90;;;;;;4990366;28;20190;-70
2021/05/16 01:23:34;;;;;;;8.83;8.13;;;11.20;99.90;;;;;;4987945;28;20326;-70
2021/05/16 01:26:01;;;;;;;8.20;7.60;;;11.20;99.90;;;;;;4989723;28;20188;-70
2021/05/16 01:28:27;;;;;;;8.83;8.13;;;11.20;99.90;;;;;;4988591;28;20648;-71
2021/05/16 01:30:53;;;;;;;8.23;7.53;;;11.20;99.90;;;;;;4986603;28;20655;-70
2021/05/16 01:33:20;;;;;;;7.30;6.70;;;11.20;99.90;;;;;;4990005;28;20221;-70
2021/05/16 01:35:46;;;;;;;7.93;7.33;;;11.20;99.90;;;;;;4992082;28;20694;-70
2021/05/16 01:38:13;;;;;;;8.10;7.47;;;11.20;99.90;;;;;;4964868;28;20640;-71
2021/05/16 01:40:40;;;;;;;8.20;7.33;;;11.20;99.90;;;;;;4971979;28;20643;-70
2021/05/16 01:43:12;;;;;;;7.53;6.93;;;11.20;99.90;;;;;;4993219;28;20692;-70
2021/05/16 01:45:39;;;;;;;7.70;7.10;;;11.20;99.90;;;;;;4986854;28;20654;-70
2021/05/16 01:48:04;;;;;;;7.30;6.70;;;11.20;99.90;;;;;;4986198;28;20650;-70
2021/05/16 01:50:34;;;;;;;7.40;6.80;;;11.20;99.90;;;;;;4985461;28;20660;-70
2021/05/16 01:53:01;;;;;;;7.37;6.77;;;11.10;99.90;;;;;;5065968;23;20292;-68
2021/05/16 01:55:27;;;;;;;7.40;6.80;;;11.10;99.90;;;;;;4994307;28;20625;-68
2021/05/16 01:57:53;;;;;;;7.17;6.60;;;11.10;99.90;;;;;;5025747;28;20650;-68
2021/05/16 02:00:22;;;;;;;7.20;6.60;;;11.10;99.90;;;;;;5013130;28;21153;-68
2021/05/16 02:02:48;;;;;;;6.97;6.43;;;11.10;99.90;;;;;;5026981;28;20816;-68
2021/05/16 02:05:14;;;;;;;7.53;6.93;;;11.10;99.90;;;;;;5026282;28;20641;-68
2021/05/16 02:07:40;;;;;;;6.90;6.40;;;11.10;99.90;;;;;;5026312;28;21055;-68
2021/05/16 02:10:07;;;;;;;8.23;7.47;;;11.10;99.90;;;;;;5024834;28;20667;-68
2021/05/16 02:12:32;;;;;;;6.70;6.10;;;11.10;99.90;;;;;;5022527;28;20626;-69
2021/05/16 02:14:58;;;;;;;7.50;6.90;;;11.20;99.90;;;;;;5018949;28;20639;-68
2021/05/16 02:17:23;;;;;;;7.60;6.80;;;11.20;99.90;;;;;;5022817;28;20524;-68
2021/05/16 02:19:49;;;;;;;6.93;6.43;;;11.20;99.90;;;;;;5024039;28;20670;-68
2021/05/16 02:22:16;;;;;;;7.20;6.60;;;11.10;99.90;;;;;;5022727;28;20212;-68
2021/05/16 02:24:47;;;;;;;6.70;6.10;;;11.10;99.90;;;;;;5024889;28;20700;-68
2021/05/16 02:27:12;;;;;;;6.97;6.47;;;11.10;99.90;;;;;;5001242;28;20345;-68
2021/05/16 02:29:39;;;;;;;6.83;6.23;;;11.10;99.90;;;;;;5026783;28;21426;-68
2021/05/16 02:32:07;;;;;;;7.70;7.10;;;11.10;99.90;;;;;;5025743;28;20310;-68
2021/05/16 02:34:36;;;;;;;7.60;7.00;;;11.20;99.90;;;;;;5003023;28;20638;-68
2021/05/16 02:37:02;;;;;;;7.63;7.00;;;11.10;99.90;;;;;;5024941;28;20676;-68
2021/05/16 02:39:27;;;;;;;6.83;6.30;;;11.10;99.90;;;;;;5027924;28;21205;-69
2021/05/16 02:41:53;;;;;;;7.97;7.27;;;11.10;99.90;;;;;;5029328;28;20238;-68
2021/05/16 02:44:19;;;;;;;7.73;7.13;;;11.10;99.90;;;;;;5031375;28;20869;-68
2021/05/16 02:46:46;;;;;;;8.00;7.37;;;11.10;99.90;;;;;;5008108;28;20721;-68
2021/05/16 02:49:12;;;;;;;7.07;6.50;;;11.10;99.90;;;;;;4991566;28;20681;-69
2021/05/16 02:51:38;;;;;;;7.70;7.10;;;11.10;99.90;;;;;;5004372;28;20642;-68
2021/05/16 02:54:04;;;;;;;7.77;7.07;;;11.10;99.90;;;;;;5027230;28;21280;-68
2021/05/16 02:56:30;;;;;;;7.57;6.97;;;11.10;99.90;;;;;;5031039;28;20628;-68
2021/05/16 02:58:55;;;;;;;7.87;7.07;;;11.10;99.90;;;;;;5028748;28;20238;-68
2021/05/16 03:01:21;;;;;;;8.10;7.50;;;11.10;99.90;;;;;;5014904;28;20335;-68
2021/05/16 03:03:47;;;;;;;7.50;6.90;;;11.10;99.90;;;;;;5025058;28;21682;-68
2021/05/16 03:06:13;;;;;;;7.57;6.93;;;11.10;99.90;;;;;;5009510;28;20636;-68
2021/05/16 03:08:41;;;;;;;7.53;6.93;;;11.10;99.90;;;;;;5027118;28;20224;-69
2021/05/16 03:11:07;;;;;;;7.73;7.10;;;11.00;99.90;;;;;;5026150;28;20744;-68
2021/05/16 03:13:32;;;;;;;7.47;6.87;;;11.00;99.90;;;;;;5009774;28;20635;-68
2021/05/16 03:15:58;;;;;;;8.07;7.37;;;11.00;99.90;;;;;;5029811;28;20188;-68
2021/05/16 03:18:24;;;;;;;7.80;7.10;;;11.00;99.90;;;;;;5029514;28;21742;-68
2021/05/16 03:20:50;;;;;;;7.83;7.13;;;11.00;99.90;;;;;;5024787;28;20207;-68
2021/05/16 03:23:16;;;;;;;8.20;7.43;;;11.00;99.90;;;;;;5013909;28;20630;-69
2021/05/16 03:25:45;;;;;;;7.97;7.27;;;11.00;99.90;;;;;;5029917;28;20180;-68
2021/05/16 03:28:10;;;;;;;8.07;6.90;;;11.00;99.90;;;;;;5031527;28;20207;-68
2021/05/16 03:30:36;;;;;;;7.60;6.90;;;11.00;99.90;;;;;;5028765;28;21034;-68
2021/05/16 03:33:02;;;;;;;7.80;7.20;;;11.00;99.90;;;;;;5012431;28;20433;-69
2021/05/16 03:35:27;;;;;;;7.17;6.57;;;11.00;99.90;;;;;;5052492;28;20225;-69
2021/05/16 03:37:55;;;;;;;7.00;6.40;;;11.00;99.90;;;;;;5048125;28;20223;-68
2021/05/16 03:40:21;;;;;;;8.03;7.33;;;10.90;99.90;;;;;;5030502;28;22050;-69
2021/05/16 03:42:46;;;;;;;7.57;6.93;;;10.90;99.90;;;;;;5032831;28;20667;-68
2021/05/16 03:45:13;;;;;;;7.10;6.50;;;10.90;99.90;;;;;;5019401;28;20227;-69
2021/05/16 03:47:39;;;;;;;7.30;6.70;;;10.90;99.90;;;;;;5004791;28;20302;-68
2021/05/16 03:50:11;;;;;;;7.30;6.70;;;10.90;99.90;;;;;;5031031;28;20642;-68
2021/05/16 03:52:37;;;;;;;8.33;7.70;;;10.90;99.90;;;;;;4994223;28;20634;-68
2021/05/16 03:55:03;;;;;;;7.23;6.63;;;10.90;99.90;;;;;;5031425;28;20630;-68
2021/05/16 03:57:29;;;;;;;7.80;7.10;;;10.90;99.90;;;;;;5037170;28;21378;-68
2021/05/16 03:59:54;;;;;;;7.20;6.60;;;10.90;99.90;;;;;;5014919;28;20673;-68
2021/05/16 04:02:20;;;;;;;7.03;6.50;;;10.90;99.90;;;;;;5010706;28;20227;-66
2021/05/16 04:04:45;;;;;;;7.97;7.00;;;10.90;99.90;;;;;;5027500;28;20710;-65
2021/05/16 04:07:11;;;;;;;8.20;7.50;;;10.90;99.90;;;;;;5032113;28;20232;-65
2021/05/16 04:09:36;;;;;;;7.30;6.80;;;10.90;99.90;;;;;;5030520;28;20211;-64
2021/05/16 04:12:02;;;;;;;7.17;6.50;;;11.00;99.90;;;;;;5025493;28;21277;-66
2021/05/16 04:14:28;;;;;;;6.93;6.43;;;11.00;99.90;;;;;;5031103;28;20224;-65
2021/05/16 04:16:57;;;;;;;7.03;6.43;;;11.00;99.90;;;;;;5034515;28;20606;-66
2021/05/16 04:19:23;;;;;;;7.00;6.40;;;11.00;99.90;;;;;;5029962;28;20699;-66
2021/05/16 04:21:48;;;;;;;7.23;6.60;;;11.00;99.90;;;;;;5027382;28;20748;-66
2021/05/16 04:24:14;;;;;;;7.50;6.63;;;11.10;99.90;;;;;;5034011;28;20754;-65
2021/05/16 04:26:42;;;;;;;7.00;5.57;;;11.10;99.90;;;;;;5032519;28;20184;-66
2021/05/16 04:29:08;;;;;;;6.60;6.00;;;11.10;99.90;;;;;;5035109;28;20286;-64
2021/05/16 04:31:34;;;;;;;6.67;6.10;;;11.10;99.90;;;;;;5031817;28;20602;-66
2021/05/16 04:34:00;;;;;;;6.50;6.00;;;11.10;99.90;;;;;;5033037;28;20223;-66
2021/05/16 04:36:26;;;;;;;6.90;6.20;;;11.10;99.90;;;;;;5039359;28;21203;-65
2021/05/16 04:38:52;;;;;;;6.77;6.17;;;11.10;99.90;;;;;;5031570;28;20208;-65
2021/05/16 04:41:18;;;;;;;6.73;6.23;;;11.20;99.90;;;;;;5033210;28;20619;-64
2021/05/16 04:43:44;;;;;;;6.70;6.10;;;11.20;99.90;;;;;;5006284;28;20235;-64
2021/05/16 04:46:10;;;;;;;5.83;5.43;;;11.20;99.90;;;;;;5035688;28;20611;-64
2021/05/16 04:48:35;;;;;;;6.93;6.33;;;11.20;99.90;;;;;;5031571;28;20335;-64
2021/05/16 04:51:01;;;;;;;6.53;6.00;;;11.20;99.90;;;;;;5025609;28;20231;-65
2021/05/16 04:53:32;;;;;;;6.63;6.03;;;11.20;99.90;;;;;;5031129;28;20548;-68
2021/05/16 04:55:58;;;;;;;6.80;6.10;;;11.20;99.90;;;;;;5012626;28;20767;-66
2021/05/16 04:58:24;;;;;;;6.70;6.10;;;11.20;99.90;;;;;;5032751;28;21255;-66
2021/05/16 05:00:50;;;;;;;6.37;5.87;;;11.20;99.90;;;;;;5040470;28;20200;-66
2021/05/16 05:03:16;;;;;;;7.10;6.50;;;11.30;99.90;;;;;;5037881;28;20622;-64
2021/05/16 05:05:42;;;;;;;6.93;6.33;;;11.30;99.90;;;;;;5031100;28;20701;-65
2021/05/16 05:08:08;;;;;;;6.30;5.77;;;11.30;99.90;;;;;;5036456;28;20777;-66
2021/05/16 05:10:33;;;;;;;6.33;5.83;;;11.30;99.90;;;;;;5018504;28;21217;-65
2021/05/16 05:13:01;;;;;;;6.60;6.03;;;11.30;99.90;;;;;;5016666;28;20704;-66
2021/05/16 05:15:27;;;;;;;6.63;6.13;;;11.40;99.90;;;;;;5036799;28;20318;-67
2021/05/16 05:17:52;;;;;;;7.07;6.37;;;11.40;99.90;;;;;;5018580;28;24435;-66
2021/05/16 05:20:18;;;;;;;6.50;5.90;;;11.50;99.90;;;;;;5036713;28;20697;-66
2021/05/16 05:22:46;;;;;;;7.00;6.40;;;11.50;99.90;;;;;;5020858;28;20223;-64
2021/05/16 05:25:12;;;;;;;6.30;5.80;;;11.60;99.90;;;;;;5037385;28;20287;-66
2021/05/16 05:27:37;;;;;;;6.53;6.03;;;11.70;99.90;;;;;;5031479;28;20719;-66
2021/05/16 05:30:05;;;;;;;7.97;7.27;;;11.70;99.90;;;;;;5038198;28;20745;-66
2021/05/16 05:32:30;;;;;;;6.37;5.87;;;11.70;99.90;;;;;;5016519;28;20730;-64
2021/05/16 05:34:56;;;;;;;5.90;5.40;;;11.70;99.90;;;;;;5013341;28;20634;-65
2021/05/16 05:37:21;;;;;;;6.23;5.63;;;11.70;99.90;;;;;;5015892;28;20219;-67
2021/05/16 05:39:47;;;;;;;6.60;6.00;;;11.70;99.90;;;;;;5035364;28;20192;-65
2021/05/16 05:42:13;;;;;;;6.20;5.70;;;11.70;99.90;;;;;;5028947;28;20239;-66
2021/05/16 05:44:40;;;;;;;6.73;6.07;;;11.80;99.90;;;;;;5036119;28;20224;-64
2021/05/16 05:47:06;;;;;;;6.90;6.00;;;11.80;99.90;;;;;;5035253;28;20943;-64
2021/05/16 05:49:32;;;;;;;6.13;5.63;;;11.80;99.90;;;;;;5026671;28;20662;-65
2021/05/16 05:52:00;;;;;;;6.63;5.90;;;11.80;99.90;;;;;;5035922;28;20610;-66
2021/05/16 05:54:31;;;;;;;6.50;6.00;;;11.80;99.90;;;;;;5035047;28;20223;-66
2021/05/16 05:56:57;;;;;;;6.33;5.80;;;11.80;99.90;;;;;;5035852;28;20611;-65
2021/05/16 05:59:22;;;;;;;5.67;5.27;;;11.90;99.90;;;;;;5029268;28;21244;-64
2021/05/16 06:01:48;;;;;;;6.80;6.30;;;11.90;99.90;;;;;;5030049;28;20268;-65
2021/05/16 06:04:14;;;;;;;6.27;5.87;;;11.90;99.90;;;;;;4991308;28;22609;-65
2021/05/16 06:06:39;;;;;;;6.70;6.20;;;12.00;99.90;;;;;;5022173;28;20263;-66
2021/05/16 06:09:05;;;;;;;5.80;5.40;;;12.00;99.90;;;;;;5037150;28;20199;-64
2021/05/16 06:11:31;;;;;;;6.30;5.80;;;12.00;99.90;;;;;;5038658;28;20208;-66
2021/05/16 06:13:56;;;;;;;6.47;5.97;;;12.00;99.90;;;;;;5034648;28;20897;-66
2021/05/16 06:16:22;;;;;;;6.80;6.17;;;12.00;99.90;;;;;;5028120;28;20294;-65
2021/05/16 06:18:49;;;;;;;6.33;5.83;;;12.10;99.90;;;;;;5026727;28;20215;-65
2021/05/16 06:21:15;;;;;;;7.47;6.00;;;12.10;99.90;;;;;;5012384;28;20638;-65
2021/05/16 06:24:14;;;;;;;6.97;6.10;;;12.10;99.90;;;;;;5031493;28;20668;-65
2021/05/16 06:26:37;;;;;;;6.23;5.80;;;12.10;99.90;;;;;;5030188;28;22692;-65
2021/05/16 06:29:06;;;;;;;6.90;6.27;;;12.10;99.90;;;;;;5032946;28;20664;-66
2021/05/16 06:31:32;;;;;;;7.10;6.40;;;12.20;99.90;;;;;;5032424;28;20642;-65
2021/05/16 06:33:58;;;;;;;7.47;6.70;;;12.20;99.90;;;;;;5030243;28;20638;-66
2021/05/16 06:36:25;;;;;;;6.83;6.20;;;12.10;99.90;;;;;;5029213;28;20615;-66
2021/05/16 06:38:51;;;;;;;8.20;7.07;;;12.10;99.90;;;;;;5027854;28;21016;-65
2021/05/16 06:41:17;;;;;;;7.70;7.10;;;12.10;99.90;;;;;;5027364;28;20618;-65
2021/05/16 06:43:42;;;;;;;8.10;7.30;;;12.10;99.90;;;;;;5018062;28;20290;-65
2021/05/16 06:46:08;;;;;;;7.30;6.70;;;12.20;99.90;;;;;;5028061;28;20279;-68
2021/05/16 06:48:37;;;;;;;6.93;6.33;;;12.20;99.90;;;;;;5025396;28;20272;-65
2021/05/16 06:51:03;;;;;;;9.37;8.47;;;12.30;99.90;;;;;;5016439;28;21294;-66
2021/05/16 06:53:30;;;;;;;9.27;8.17;;;12.40;99.90;;;;;;5023596;28;20681;-66
2021/05/16 06:56:01;;;;;;;8.47;7.77;;;12.40;99.90;;;;;;5000469;28;20610;-66
2021/05/16 06:58:27;;;;;;;7.77;7.10;;;12.40;99.90;;;;;;5025903;28;20704;-65
2021/05/16 07:00:52;;;;;;;9.20;8.47;;;12.50;99.90;;;;;;5023805;28;21165;-65
2021/05/16 07:03:18;;;;;;;8.53;7.83;;;12.50;99.90;;;;;;5030194;28;20667;-67
2021/05/16 07:05:44;;;;;;;9.33;8.43;;;12.60;99.90;;;;;;5029831;28;20215;-65
2021/05/16 07:08:09;;;;;;;9.90;9.07;;;12.70;99.90;;;;;;5037810;28;20728;-67
2021/05/16 07:10:35;;;;;;;9.50;8.70;;;12.90;99.90;;;;;;5034933;28;20229;-66
2021/05/16 07:13:03;;;;;;;10.03;9.23;;;12.90;99.90;;;;;;5035054;28;20260;-66
2021/05/16 07:15:29;;;;;;;9.87;8.97;;;13.00;99.90;;;;;;5031040;28;20207;-65
2021/05/16 07:18:00;;;;;;;8.80;8.00;;;13.00;99.90;;;;;;5033189;28;20650;-67
2021/05/16 07:20:26;;;;;;;9.20;8.30;;;13.00;99.90;;;;;;5032395;28;20683;-64
2021/05/16 07:22:51;;;;;;;9.40;8.40;;;13.10;99.90;;;;;;5028979;28;20622;-66
2021/05/16 07:25:17;;;;;;;9.70;8.90;;;13.10;99.90;;;;;;5031785;28;20230;-63
2021/05/16 07:27:44;;;;;;;10.80;8.93;;;13.20;99.90;;;;;;5032625;28;20718;-64
2021/05/16 07:30:10;;;;;;;9.90;9.07;;;13.20;99.90;;;;;;5013710;28;20727;-65
2021/05/16 07:32:36;;;;;;;9.57;8.77;;;13.30;99.90;;;;;;5042344;28;20629;-65
2021/05/16 07:35:02;;;;;;;9.80;9.00;;;13.30;99.90;;;;;;5038482;28;20623;-64
2021/05/16 07:37:27;;;;;;;9.27;8.57;;;13.20;99.90;;;;;;5026120;28;20716;-64
2021/05/16 07:39:53;;;;;;;8.67;8.07;;;13.30;99.90;;;;;;5045221;28;20620;-65
2021/05/16 07:42:19;;;;;;;9.73;8.70;;;13.20;99.90;;;;;;5040255;28;20180;-65
2021/05/16 07:44:44;;;;;;;10.07;9.13;;;13.20;99.90;;;;;;5041327;28;20269;-65
2021/05/16 07:47:10;;;;;;;8.97;8.17;;;13.20;99.90;;;;;;5042706;28;20191;-65
2021/05/16 07:49:36;;;;;;;10.37;9.57;;;13.20;99.90;;;;;;5024010;28;20212;-64
2021/05/16 07:52:01;;;;;;;11.00;9.90;;;13.30;99.90;;;;;;5021636;28;20291;-64
2021/05/16 07:54:29;;;;;;;9.70;8.90;;;13.30;99.90;;;;;;5085424;23;20335;-64
2021/05/16 07:56:57;;;;;;;9.73;8.93;;;13.40;99.90;;;;;;5018334;28;20250;-64
2021/05/16 07:59:23;;;;;;;10.43;9.40;;;13.40;99.90;;;;;;5015516;28;20729;-64
2021/05/16 08:01:51;;;;;;;9.93;9.13;;;13.50;99.90;;;;;;5003162;28;20627;-65
2021/05/16 08:04:19;;;;;;;10.30;9.37;;;13.40;99.90;;;;;;4999520;28;20208;-64
2021/05/16 08:06:45;;;;;;;8.90;8.10;;;13.50;99.90;;;;;;5013973;28;20878;-64
2021/05/16 08:09:13;;;;;;;9.47;8.57;;;13.50;99.90;;;;;;4998974;28;21331;-64
2021/05/16 08:11:38;;;;;;;9.23;8.00;;;13.60;99.90;;;;;;5002972;28;20217;-64
2021/05/16 08:14:04;;;;;;;8.70;8.00;;;13.70;99.90;;;;;;5005463;28;20643;-60
2021/05/16 08:16:31;;;;;;;9.87;8.90;;;13.70;99.90;;;;;;5005511;28;22639;-60
2021/05/16 08:18:56;;;;;;;9.27;8.43;;;13.80;99.90;;;;;;5005164;28;20217;-65
2021/05/16 08:21:24;;;;;;;9.60;8.77;;;13.80;99.90;;;;;;4981434;28;21189;-63
2021/05/16 08:23:50;;;;;;;9.23;8.53;;;13.90;99.90;;;;;;4998560;28;20228;-66
2021/05/16 08:26:18;;;;;;;8.97;8.17;;;14.00;99.90;;;;;;5027316;28;20668;-64
2021/05/16 08:28:46;;;;;;;9.20;8.50;;;14.00;99.90;;;;;;5023107;28;20236;-64
2021/05/16 08:31:11;;;;;;;9.13;8.33;;;14.20;99.90;;;;;;5034301;28;20650;-64
2021/05/16 08:33:37;;;;;;;10.33;9.43;;;14.20;99.90;;;;;;5030273;28;20649;-64
2021/05/16 08:36:03;;;;;;;10.67;9.67;;;14.20;99.90;;;;;;5028667;28;20181;-64
2021/05/16 08:38:28;;;;;;;9.43;8.53;;;14.30;99.90;;;;;;5020749;28;20214;-60
2021/05/16 08:40:54;;;;;;;10.30;9.30;;;14.30;99.90;;;;;;5024229;28;20193;-60
2021/05/16 08:43:20;;;;;;;8.87;8.07;;;14.40;99.90;;;;;;5021548;28;20399;-65
2021/05/16 08:45:46;;;;;;;9.93;9.10;;;14.60;99.90;;;;;;5021488;28;20181;-64
2021/05/16 08:48:11;;;;;;;9.60;8.73;;;14.60;99.90;;;;;;5019435;28;20715;-64
2021/05/16 08:50:37;;;;;;;9.63;8.80;;;14.80;99.90;;;;;;5026807;28;20204;-65
2021/05/16 08:53:03;;;;;;;9.47;8.67;;;14.80;99.90;;;;;;5022550;28;20227;-64
2021/05/16 08:55:28;;;;;;;9.20;8.40;;;14.90;99.90;;;;;;5016895;28;20197;-64
2021/05/16 08:57:54;;;;;;;9.27;8.47;;;14.90;99.90;;;;;;5011361;28;20213;-64
2021/05/16 09:00:26;;;;;;;9.30;8.50;;;15.00;99.90;;;;;;5019897;28;20432;-64
2021/05/16 09:03:14;;;;;;;9.63;8.90;;;15.00;99.90;;;;;;5022044;28;20191;-65
2021/05/16 09:05:43;;;;;;;9.73;8.93;;;15.00;99.90;;;;;;5028233;28;20629;-65
2021/05/16 09:08:12;;;;;;;10.13;9.23;;;15.10;99.90;;;;;;5022162;28;20686;-64
2021/05/16 09:10:43;;;;;;;10.47;9.57;;;15.10;99.90;;;;;;5026167;28;20967;-64
2021/05/16 09:13:16;;;;;;;8.97;8.27;;;15.10;99.90;;;;;;5028364;28;20634;-64
2021/05/16 09:15:43;;;;;;;9.20;8.50;;;15.20;99.90;;;;;;5017148;28;20782;-68
2021/05/16 09:18:09;;;;;;;9.20;8.40;;;15.20;99.90;;;;;;5026328;28;20646;-64
2021/05/16 09:20:35;;;;;;;10.07;9.27;;;15.10;99.90;;;;;;5003075;28;20647;-65
2021/05/16 09:23:03;;;;;;;8.77;8.00;;;15.30;99.90;;;;;;5021438;28;20220;-64
2021/05/16 09:25:32;;;;;;;7.50;6.87;;;15.30;99.90;;;;;;5010758;28;20196;-64
2021/05/16 09:28:00;;;;;;;7.43;6.83;;;15.20;99.90;;;;;;5010265;28;21265;-63
2021/05/16 09:30:30;;;;;;;9.77;8.23;;;15.10;99.90;;;;;;5024394;28;20654;-64
2021/05/16 09:32:57;;;;;;;9.50;8.33;;;15.10;99.90;;;;;;5040344;28;20639;-65
2021/05/16 09:35:50;;;;;;;6.00;5.60;;;14.80;99.90;;;;;;5036337;28;20706;-65
2021/05/16 09:38:22;;;;;;;6.13;5.63;;;14.60;99.90;;;;;;5015749;28;20647;-63
2021/05/16 09:40:53;;;;;;;5.10;4.60;;;14.30;99.90;;;;;;5023170;28;20713;-63
2021/05/16 09:43:29;;;;;;;4.80;4.37;;;14.20;99.90;;;;;;5024820;28;21214;-64
2021/05/16 09:45:58;;;;;;;5.50;4.63;;;14.10;99.90;;;;;;5022477;28;20623;-64
2021/05/16 09:48:31;;;;;;;4.53;4.13;;;14.00;99.90;;;;;;5038518;28;20686;-65
2021/05/16 09:51:16;;;;;;;4.40;4.10;;;14.00;99.90;;;;;;5036621;28;20651;-64
2021/05/16 09:53:45;;;;;;;5.63;4.40;;;14.00;99.90;;;;;;5036562;28;21497;-67
2021/05/16 09:56:20;;;;;;;4.40;4.00;;;14.00;99.90;;;;;;5033051;28;20650;-65
2021/05/16 09:58:46;;;;;;;4.40;4.00;;;14.00;99.90;;;;;;5045206;28;20742;-64
2021/05/16 10:01:18;;;;;;;4.07;3.60;;;14.10;99.90;;;;;;5023629;28;21450;-63
2021/05/16 10:03:46;;;;;;;4.13;3.73;;;14.30;99.90;;;;;;5018350;28;20714;-64
2021/05/16 10:06:12;;;;;;;4.57;4.17;;;14.40;99.90;;;;;;5014524;28;20715;-65
2021/05/16 10:08:37;;;;;;;4.80;4.40;;;14.50;99.90;;;;;;5020568;28;20730;-64
2021/05/16 10:11:04;;;;;;;6.63;6.03;;;14.70;99.90;;;;;;5026631;28;20212;-64
2021/05/16 10:13:36;;;;;;;6.60;6.10;;;14.80;99.90;;;;;;5005820;28;20243;-64
2021/05/16 10:16:02;;;;;;;7.50;6.30;;;14.90;99.90;;;;;;5029199;28;20617;-65
2021/05/16 10:18:31;;;;;;;7.80;7.10;;;15.10;99.90;;;;;;5021431;28;20635;-65
2021/05/16 10:20:58;;;;;;;7.53;6.83;;;15.20;99.90;;;;;;5026067;28;20664;-64
2021/05/16 10:23:35;;;;;;;8.60;7.80;;;15.40;99.90;;;;;;5012587;28;20643;-65
2021/05/16 10:26:24;;;;;;;9.23;8.33;;;15.50;99.90;;;;;;5004968;28;20626;-65
2021/05/16 10:29:00;;;;;;;7.70;6.90;;;15.60;99.90;;;;;;5021004;28;21050;-64
2021/05/16 10:31:54;;;;;;;8.50;7.80;;;15.70;99.90;;;;;;5009308;28;21237;-63
2021/05/16 10:34:27;;;;;;;7.90;7.30;;;15.80;99.90;;;;;;5006233;28;20658;-61
2021/05/16 10:37:01;;;;;;;8.57;7.73;;;15.90;99.90;;;;;;5017524;28;20599;-63
2021/05/16 10:39:41;;;;;;;8.60;7.70;;;15.90;99.90;;;;;;5020010;28;20694;-62
2021/05/16 10:42:13;;;;;;;8.47;6.63;;;16.00;99.90;;;;;;5023426;28;20602;-62
2021/05/16 10:44:57;;;;;;;8.40;6.40;;;16.10;99.90;;;;;;5011696;28;20645;-63
2021/05/16 10:47:41;;;;;;;7.27;6.60;;;16.30;99.90;;;;;;5019237;28;20627;-62
2021/05/16 10:50:30;;;;;;;7.30;6.60;;;16.40;99.90;;;;;;5010948;28;20663;-62
2021/05/16 10:53:12;;;;;;;6.90;6.20;;;16.50;99.90;;;;;;5009921;28;20631;-63
2021/05/16 10:56:30;;;;;;;8.80;6.77;;;16.50;99.90;;;;;;5011397;28;20993;-61
2021/05/16 10:58:56;;;;;;;7.67;6.90;;;16.50;99.90;;;;;;4982553;28;20741;-60
2021/05/16 11:01:33;;;;;;;6.60;5.30;;;16.40;99.90;;;;;;5018782;28;20728;-63
2021/05/16 11:04:02;;;;;;;5.10;4.60;;;16.20;99.90;;;;;;5016306;28;20231;-60
2021/05/16 11:06:31;;;;;;;5.33;4.73;;;15.80;99.90;;;;;;5003984;28;20638;-62
2021/05/16 11:08:56;;;;;;;5.20;4.70;;;15.50;99.90;;;;;;5024114;28;21069;-62
2021/05/16 11:11:30;;;;;;;8.07;6.07;;;15.20;99.90;;;;;;5018291;28;20717;-62
2021/05/16 11:13:56;;;;;;;7.80;7.10;;;15.00;99.90;;;;;;5021348;28;20762;-61
2021/05/16 11:16:22;;;;;;;7.47;6.60;;;14.80;99.90;;;;;;5008376;28;20610;-61
2021/05/16 11:18:48;;;;;;;6.27;5.67;;;14.70;99.90;;;;;;5030219;28;20642;-62
2021/05/16 11:21:16;;;;;;;6.77;4.80;;;14.60;99.90;;;;;;5026829;28;20991;-62
2021/05/16 11:23:47;;;;;;;13.33;5.23;;;14.50;99.90;;;;;;5011867;28;20247;-62
2021/05/16 11:26:17;;;;;;;3.47;3.17;;;14.50;99.90;;;;;;5014467;28;20711;-63
2021/05/16 11:28:56;;;;;;;4.03;3.60;;;14.40;99.90;;;;;;5012172;28;20642;-64
2021/05/16 11:31:28;;;;;;;5.37;4.87;;;14.30;99.90;;;;;;5014881;28;20775;-64
2021/05/16 11:33:56;;;;;;;6.23;5.00;;;14.30;99.90;;;;;;5011229;28;21007;-64
2021/05/16 11:36:27;;;;;;;6.67;5.60;;;14.30;99.90;;;;;;5011341;28;21195;-64
2021/05/16 11:38:55;;;;;;;6.73;6.13;;;14.50;99.90;;;;;;5020794;28;20646;-64
2021/05/16 11:41:48;;;;;;;7.60;6.90;;;14.60;99.90;;;;;;5023155;28;20612;-64
2021/05/16 11:44:22;;;;;;;8.33;7.50;;;14.80;99.90;;;;;;5021329;28;20627;-64
2021/05/16 11:46:51;;;;;;;7.83;6.87;;;15.00;99.90;;;;;;5028147;28;20606;-65
2021/05/16 11:49:30;;;;;;;8.07;7.30;;;15.10;99.90;;;;;;5020134;28;20635;-66
2021/05/16 11:52:00;;;;;;;7.47;6.77;;;15.20;99.90;;;;;;5014347;28;20606;-62
2021/05/16 11:54:43;;;;;;;8.40;7.10;;;15.30;99.90;;;;;;5007025;28;20690;-62
2021/05/16 11:57:15;;;;;;;8.20;6.97;;;15.50;99.90;;;;;;5003402;28;20615;-62
2021/05/16 11:59:43;;;;;;;8.83;7.80;;;15.70;99.90;;;;;;5002917;28;20667;-62
2021/05/16 12:02:08;;;;;;;10.87;7.37;;;15.90;99.90;;;;;;5019683;28;20707;-61
2021/05/16 12:04:41;;;;;;;8.83;8.00;;;16.10;99.90;;;;;;5004114;28;20658;-62
2021/05/16 12:07:07;;;;;;;7.60;6.90;;;16.20;99.90;;;;;;5009330;28;20782;-61
2021/05/16 12:09:41;;;;;;;7.60;6.67;;;16.30;99.90;;;;;;5013691;28;20643;-62
2021/05/16 12:12:25;;;;;;;6.77;6.07;;;16.50;99.90;;;;;;5012618;28;20203;-60
2021/05/16 12:14:56;;;;;;;8.97;8.07;;;16.70;99.90;;;;;;4999425;28;20765;-62
2021/05/16 12:17:32;;;;;;;7.50;6.30;;;16.80;99.90;;;;;;4987215;28;20627;-61
2021/05/16 12:19:58;;;;;;;6.03;5.43;;;16.90;99.90;;;;;;5004425;28;20634;-63
2021/05/16 12:22:34;;;;;;;6.13;5.53;;;17.00;99.90;;;;;;5022863;28;20955;-62
2021/05/16 12:24:59;;;;;;;4.63;4.23;;;17.30;99.90;;;;;;5021982;28;20223;-62
2021/05/16 12:27:27;;;;;;;3.40;3.10;;;17.40;99.90;;;;;;5011872;28;20619;-60
2021/05/16 12:29:54;;;;;;;2.40;2.30;;;17.50;99.90;;;;;;5022855;28;20208;-62
2021/05/16 12:32:24;;;;;;;2.40;2.20;;;17.60;99.90;;;;;;5007117;28;20754;-61
2021/05/16 12:34:51;;;;;;;2.83;2.60;;;17.80;99.90;;;;;;5011629;28;20734;-61
2021/05/16 12:37:18;;;;;;;2.53;2.33;;;17.90;99.90;;;;;;5017285;28;21255;-62
2021/05/16 12:39:50;;;;;;;3.10;2.70;;;18.00;99.90;;;;;;5022373;28;21162;-62
2021/05/16 12:42:40;;;;;;;3.23;2.93;;;18.20;99.90;;;;;;5022416;28;24404;-61
2021/05/16 12:45:23;;;;;;;2.97;2.77;;;18.20;99.90;;;;;;5023259;28;21537;-62
2021/05/16 12:48:06;;;;;;;3.93;3.37;;;18.20;99.90;;;;;;5020414;28;20636;-62
2021/05/16 12:50:42;;;;;;;4.90;4.50;;;18.10;99.90;;;;;;5012603;28;20780;-58